aviador You're here:

KSHN Decoded Metar

SHELTON in WA, USA
Report Time2017-11-20 23:53:00
UTC Time2017-11-21 00:47:36
Flight Rules vfr VFR
Wind230° at 11 kt
W.Decomp.*RWY 23: 10.4 kt HW 3.6 kt LCW
W.Rank230° ranks 2
Current wind is above 230° avg. (9.6)
Visibility9999 m
Phenomena:N/A
Clouds:N/A
Expected CloudBase > 2,400 ft AGL from Temp-Dew spread
CeilingNone
Temp09°C (ISA -5)
Dew Point03°C (66% RH)
AAT3.5°C
QNH1012 hPa
Density Alt-246 ft
Elevation269 ft
Report Wrong Elevation
Raw Report
METAR KSHN 202353Z AUTO 23011KT 10SM CLR 09/03 A2987 RMK AO2 SLP119
T00890033 10111 20089 51033=

Extra information for KSHN:More info

Metar Taf Metar & Taf Last 4 Metars F.Rules Stats Wind Profile Meteogram Temp Stats Airport Information Weather charts Add Link Nearby VenuesMetar ALERT Operation Metar Decoded Social comments

AIRNAV info for KSHN